• Join FlightAware (Why Join?)
  • Login
  • US Flag 
10:25AM EDT


 

Airport Tracker/Info


-or-


 

Live Flight TrackerFlight Track Log ✈ SWA1496 ✈ 27-Apr-2013 ✈ KOAK - KSAN

Flight Track Log - Related Links

Times and Time Zones

All times are in EDT time to prevent confusion due to time zone crossing. See the SWA1496 flight status page for this flight to view local times or setup timezone preferences in your user account.

Time Position Orientation Groundspeed Altitude Reporting Facility
EDT Latitude Longitude Course Direction KTS MPH feet Rate Location/Type
03:44PM 37.7167 -122.2500 309° West 149 171 1,100  Level Northern Cal TRACON
03:46PM 37.7556 -122.3100 309° West 210 242 3,000 1,920 Climbing Oakland Center
03:47PM 37.7389 -122.3819 254° West 229 264 5,300 3,000 Climbing Oakland Center
03:48PM 37.6939 -122.4592 234° Southwest 263 303 9,200 3,180 Climbing Oakland Center
03:49PM 37.6150 -122.5053 205° Southwest 315 362 11,900 3,120 Climbing Oakland Center
03:50PM 37.5244 -122.5550 204° Southwest 350 403 15,600 3,480 Climbing Oakland Center
03:51PM 37.4189 -122.5603 182° South 379 436 19,000 3,000 Climbing Oakland Center
03:52PM 37.3094 -122.5633 181° South 392 451 21,800 2,700 Climbing Oakland Center
03:53PM 37.1917 -122.5656 181° South 416 479 24,600 2,700 Climbing Oakland Center
03:54PM 37.0806 -122.5253 164° South 433 498 27,400 2,460 Climbing Oakland Center
03:55PM 36.9839 -122.4367 144° Southeast 434 499 29,700 2,280 Climbing Oakland Center
03:56PM 36.8625 -122.3267 144° Southeast 450 518 32,100 2,280 Climbing Oakland Center
03:57PM 36.7631 -122.2331 143° Southeast 448 516 34,400 1,980 Climbing Oakland Center
03:58PM 36.6625 -122.1419 144° Southeast 450 518 36,200 1,560 Climbing Oakland Center
04:00PM 36.4603 -121.9617 144° Southeast 449 517 39,200 1,380 Climbing Oakland Center
04:01PM 36.3606 -121.8717 144° Southeast 445 512 40,500 840 Climbing Oakland Center
04:02PM 36.2556 -121.7778 144° Southeast 443 510 41,000 240 Climbing Oakland Center
04:03PM 36.1547 -121.6861 144° Southeast 449 517 41,000  Level Oakland Center
04:04PM 36.0517 -121.5961 145° Southeast 453 521 41,000  Level Oakland Center
04:05PM 35.9572 -121.4956 139° Southeast 450 518 41,000  Level Oakland Center
04:06PM 35.8789 -121.3692 127° Southeast 460 529 41,000  Level Oakland Center
04:07PM 35.8003 -121.2464 128° Southeast 459 528 41,000  Level Oakland Center
04:08PM 35.7061 -121.0950 127° Southeast 464 534 41,000  Level Oakland Center
04:09PM 35.6261 -120.9725 129° Southeast 460 529 41,000  Level Oakland Center
04:10PM 35.5472 -120.8483 128° Southeast 463 533 41,000  Level Oakland Center
04:11PM 35.4678 -120.7258 129° Southeast 462 532 41,000  Level Oakland Center
04:12PM 35.3883 -120.6042 129° Southeast 462 532 41,000  Level Oakland Center
04:12PM 35.3633 -120.5667 129° Southeast 460 529 41,000  Level Los Angeles Center
04:13PM 35.2831 -120.4431 128° Southeast 462 532 41,000  Level Los Angeles Center
04:14PM 35.2053 -120.3192 128° Southeast 458 527 41,000  Level Los Angeles Center
04:15PM 35.1250 -120.2000 129° Southeast 453 521 41,000  Level Los Angeles Center
04:17PM 35.0300 -120.0542 128° Southeast 455 524 41,000  Level Los Angeles Center
04:18PM 34.9503 -119.9336 129° Southeast 457 526 41,000  Level Los Angeles Center
04:19PM 34.8706 -119.8103 128° Southeast 462 532 41,000  Level Los Angeles Center
04:20PM 34.7881 -119.6892 130° Southeast 465 535 41,000  Level Los Angeles Center
04:21PM 34.7069 -119.5661 129° Southeast 468 539 41,000  Level Los Angeles Center
04:22PM 34.6236 -119.4450 130° Southeast 468 539 41,000  Level Los Angeles Center
04:23PM 34.5375 -119.3172 129° Southeast 469 540 41,000  Level Los Angeles Center
04:24PM 34.4550 -119.1947 129° Southeast 469 540 41,000  Level Los Angeles Center
04:25PM 34.3558 -119.0486 129° Southeast 469 540 41,000  Level Los Angeles Center
04:26PM 34.2731 -118.9278 130° Southeast 468 539 41,000  Level Los Angeles Center
04:27PM 34.1900 -118.8064 130° Southeast 469 540 41,000  Level Los Angeles Center
04:28PM 34.1075 -118.6864 130° Southeast 466 536 41,000 -240 Level Los Angeles Center
04:29PM 34.0253 -118.5664 130° Southeast 465 535 40,600 -1,320 Descending Los Angeles Center
04:30PM 33.9436 -118.4469 129° Southeast 460 529 38,300 -2,760 Descending Los Angeles Center
04:31PM 33.8356 -118.3114 134° Southeast 458 527 34,900 -2,940 Descending Los Angeles Center
04:33PM 33.6617 -118.0842 133° Southeast 448 516 29,300 -2,580 Descending Los Angeles Center
04:34PM 33.5789 -117.9808 134° Southeast 430 495 27,000 -2,280 Descending Los Angeles Center
04:35PM 33.5006 -117.8819 134° Southeast 409 471 24,700 -2,160 Descending Los Angeles Center
04:36PM 33.4242 -117.7864 134° Southeast 397 457 22,600 -2,100 Descending Los Angeles Center
04:37PM 33.3483 -117.6897 133° Southeast 399 459 20,400 -2,100 Descending Los Angeles Center
04:38PM 33.2750 -117.5978 134° Southeast 385 443 18,300 -2,280 Descending Los Angeles Center
04:39PM 33.1800 -117.5042 140° Southeast 369 425 15,800 -2,280 Descending Los Angeles Center
04:40PM 33.0967 -117.4372 146° Southeast 364 419 13,700 -2,220 Descending Los Angeles Center
04:41PM 33.0000 -117.3667 149° Southeast 329 379 11,000 -2,220 Descending Southern California TRACON
04:42PM 32.9333 -117.3000 140° Southeast 317 365 8,900 -1,560 Descending Southern California TRACON
04:43PM 32.8667 -117.2500 148° Southeast 281 323 7,900 -1,320 Descending Southern California TRACON
04:44PM 32.8167 -117.2000 140° Southeast 274 315 6,400 -1,200 Descending Southern California TRACON
04:45PM 32.7911 -117.1194 111° Southeast 256 295 5,600 -720 Descending Los Angeles Center
04:46PM 32.7667 -117.0333 109° East 226 260 5,000 -780 Descending Southern California TRACON
04:48PM 32.7167 -117.0167 164° South 189 217 4,100 -1,320 Descending Southern California TRACON
04:49PM 32.7000 -117.0500 239° Southwest 177 204 2,400 -1,320 Descending Southern California TRACON
04:50PM 32.7167 -117.1000 292° West 142 163 1,500 -900 Descending Southern California TRACON
04:51PM 32.7167 -117.1500 270° West 132 152 700 -780 Descending Southern California TRACON
04:51PM 32.7256 -117.1561 330° Northwest 135 155 500 -240 Descending Los Angeles Center
04:52PM 32.7364 -117.1931 289° West 130 150 400 -120 Descending Los Angeles Center
04:54PM 32.7336 -117.1897 134° Southeast  Level Estimated